createdAt,value
2017-07-20T12:04:20.261Z,1002.0
2017-07-20T12:05:24.256Z,1002.1
2017-07-20T12:06:26.006Z,1002.0
2017-07-20T12:07:27.696Z,1002.1
2017-07-20T12:08:29.442Z,1002.1
2017-07-20T12:09:31.234Z,1002.0
2017-07-20T12:10:33.188Z,1002.0
2017-07-20T12:11:34.832Z,1002.1
2017-07-20T12:12:36.576Z,1002.1
2017-07-20T12:13:38.532Z,1002.1
2017-07-20T12:14:41.178Z,1002.0
2017-07-20T12:15:43.327Z,1002.0
2017-07-20T12:16:46.127Z,1002.1
2017-07-20T12:17:48.033Z,1002.1
2017-07-20T12:18:50.105Z,1002.1
2017-07-20T12:19:52.373Z,1002.1
2017-07-20T12:20:54.867Z,1002.1
2017-07-20T12:21:57.187Z,1002.2
2017-07-20T12:22:59.309Z,1002.1
2017-07-20T12:24:01.587Z,1002.1
2017-07-20T12:25:03.413Z,1002.0
2017-07-20T12:26:05.646Z,1002.1
2017-07-20T12:27:07.648Z,1002.0
2017-07-20T12:28:09.517Z,1002.0
2017-07-20T12:29:11.672Z,1002.0
2017-07-20T12:30:14.524Z,1002.0
2017-07-20T12:31:18.082Z,1002.0
2017-07-20T12:32:20.260Z,1002.0
2017-07-20T12:33:22.099Z,1002.0
2017-07-20T12:34:24.122Z,1002.0
2017-07-20T12:35:26.410Z,1001.9
2017-07-20T12:36:29.324Z,1001.9
2017-07-20T12:37:31.463Z,1001.9
2017-07-20T12:38:33.529Z,1001.9
2017-07-20T12:39:35.807Z,1002.0
2017-07-20T12:40:37.859Z,1001.9
2017-07-20T12:41:40.376Z,1001.8
2017-07-20T12:42:42.560Z,1002.0
2017-07-20T12:43:44.791Z,1002.1
2017-07-20T12:44:46.823Z,1002.0
2017-07-20T12:45:48.977Z,1002.1
2017-07-20T12:46:51.441Z,1002.1
2017-07-20T12:47:53.381Z,1002.1
2017-07-20T12:48:55.687Z,1002.2
2017-07-20T12:49:57.587Z,1002.3
2017-07-20T12:50:59.469Z,1002.9
2017-07-20T12:52:01.490Z,1003.8
2017-07-20T12:53:03.963Z,1004.0
2017-07-20T12:54:06.500Z,1003.8
2017-07-20T12:55:08.906Z,1003.9
2017-07-20T12:56:11.405Z,1001.9
2017-07-20T12:57:13.527Z,1001.9
2017-07-20T12:58:15.696Z,1001.8
2017-07-20T12:59:18.281Z,1002.1
2017-07-20T13:00:20.854Z,1001.8
2017-07-20T13:01:23.836Z,1001.8
2017-07-20T13:02:26.175Z,1001.7
2017-07-20T13:03:28.325Z,1001.7
2017-07-20T13:04:30.725Z,1001.7
2017-07-20T13:05:33.185Z,1001.7
2017-07-20T13:06:38.393Z,1001.8
2017-07-20T13:07:40.192Z,1001.8
2017-07-20T13:08:43.041Z,1001.8
2017-07-20T13:09:45.190Z,1001.9
2017-07-20T13:10:47.096Z,1002.0
2017-07-20T13:11:50.705Z,1002.0
2017-07-20T13:12:53.241Z,1002.0
2017-07-20T13:13:55.695Z,1001.9
2017-07-20T13:14:57.919Z,1001.9
2017-07-20T13:16:00.066Z,1002.0
2017-07-20T13:17:02.547Z,1002.0
2017-07-20T13:18:06.062Z,1002.0
2017-07-20T13:19:08.892Z,1002.1
2017-07-20T13:20:11.802Z,1002.3
2017-07-20T13:21:14.936Z,1002.1
2017-07-20T13:22:16.786Z,1002.0
2017-07-20T13:23:18.814Z,1002.0
2017-07-20T13:24:21.407Z,1002.0
2017-07-20T13:25:24.052Z,1002.1
2017-07-20T13:26:31.344Z,1002.1
2017-07-20T13:27:34.274Z,1002.1
2017-07-20T13:28:38.832Z,1002.1
2017-07-20T13:29:42.600Z,1002.1
2017-07-20T13:30:45.359Z,1002.1
2017-07-20T13:31:47.814Z,1002.1
2017-07-20T13:32:49.762Z,1002.1
2017-07-20T13:33:52.192Z,1002.1
2017-07-20T13:34:55.290Z,1002.0
2017-07-20T13:36:01.631Z,1002.0
2017-07-20T13:37:04.245Z,1002.0
2017-07-20T13:38:07.012Z,1001.9
2017-07-20T13:39:10.098Z,1001.9
2017-07-20T13:40:12.778Z,1001.9
2017-07-20T13:41:15.302Z,1001.9
2017-07-20T13:42:17.697Z,1001.9
2017-07-20T13:43:22.880Z,1002.0
2017-07-20T13:44:28.197Z,1002.0
2017-07-20T13:45:31.543Z,1002.0
2017-07-20T13:46:34.015Z,1001.9
2017-07-20T13:47:36.519Z,1001.9
2017-07-20T13:48:39.986Z,1002.1
2017-07-20T13:49:41.947Z,1002.1
2017-07-20T13:50:44.049Z,1001.9
2017-07-20T13:51:48.798Z,1002.0
2017-07-20T13:52:50.738Z,1002.0
